createdAt,value
2024-02-20T00:00:09.032Z,7.30
2024-02-20T00:02:46.011Z,7.30
2024-02-20T00:05:14.421Z,7.30
2024-02-20T00:07:41.900Z,7.30
2024-02-20T00:10:10.386Z,7.40
2024-02-20T00:12:40.760Z,7.40
2024-02-20T00:15:08.678Z,7.30
2024-02-20T00:17:39.173Z,7.30
2024-02-20T00:20:07.150Z,7.30
2024-02-20T00:22:34.838Z,7.40
2024-02-20T00:25:02.064Z,7.40
2024-02-20T00:27:30.148Z,7.40
2024-02-20T00:29:56.960Z,7.40
2024-02-20T00:32:23.944Z,7.40
2024-02-20T00:34:50.919Z,7.40
2024-02-20T00:37:17.865Z,7.40
2024-02-20T00:39:45.286Z,7.40
2024-02-20T00:42:12.315Z,7.30
2024-02-20T00:44:39.194Z,7.20
2024-02-20T00:47:10.804Z,7.20
2024-02-20T00:49:41.369Z,7.20
2024-02-20T00:52:08.804Z,7.20
2024-02-20T00:54:41.794Z,7.10
2024-02-20T00:57:10.573Z,7.10
2024-02-20T00:59:37.689Z,7.20
2024-02-20T01:02:05.689Z,7.20
2024-02-20T01:04:32.781Z,7.20
2024-02-20T01:06:59.803Z,7.20
2024-02-20T01:09:26.671Z,7.10
2024-02-20T01:11:53.525Z,7.20
2024-02-20T01:14:20.415Z,7.20
2024-02-20T01:16:47.279Z,7.20
2024-02-20T01:19:14.203Z,7.20
2024-02-20T01:21:41.204Z,7.10
2024-02-20T01:24:08.784Z,7.20
2024-02-20T01:26:35.701Z,7.20
2024-02-20T01:29:02.609Z,7.10
2024-02-20T01:31:29.602Z,7.10
2024-02-20T01:33:56.725Z,7.00
2024-02-20T01:36:24.406Z,7.00
2024-02-20T01:38:51.567Z,7.00
2024-02-20T01:41:20.115Z,7.00
2024-02-20T01:43:47.019Z,7.00
2024-02-20T01:46:26.105Z,7.00
2024-02-20T01:48:53.517Z,7.10
2024-02-20T01:51:23.558Z,7.00
2024-02-20T01:53:52.073Z,7.00
2024-02-20T01:56:20.078Z,7.00
2024-02-20T01:58:48.809Z,7.00
2024-02-20T02:01:16.101Z,7.00
2024-02-20T02:03:43.203Z,7.00
2024-02-20T02:06:10.396Z,7.10
2024-02-20T02:08:37.306Z,7.10
2024-02-20T02:11:04.415Z,7.10
2024-02-20T02:13:31.549Z,7.10
2024-02-20T02:15:58.653Z,7.10
2024-02-20T02:18:25.710Z,7.10
2024-02-20T02:20:52.668Z,7.10
2024-02-20T02:23:19.515Z,7.10
2024-02-20T02:25:46.387Z,7.10
2024-02-20T02:28:13.334Z,7.10
2024-02-20T02:30:40.916Z,7.10
2024-02-20T02:33:07.833Z,7.10
2024-02-20T02:35:35.739Z,7.10
2024-02-20T02:38:03.339Z,7.10
2024-02-20T02:40:30.269Z,7.10
2024-02-20T02:42:57.302Z,7.10
2024-02-20T02:45:24.452Z,7.10
2024-02-20T02:47:53.159Z,7.10
2024-02-20T02:50:20.299Z,7.10
2024-02-20T02:52:47.410Z,7.10
2024-02-20T02:55:14.485Z,7.10
2024-02-20T02:57:41.378Z,7.10
2024-02-20T03:00:12.825Z,7.10
2024-02-20T03:02:39.823Z,7.00
2024-02-20T03:05:07.089Z,7.00
2024-02-20T03:07:34.737Z,6.90
2024-02-20T03:10:01.804Z,6.90
2024-02-20T03:12:28.715Z,6.90
2024-02-20T03:14:57.790Z,6.90
2024-02-20T03:17:24.688Z,7.00
2024-02-20T03:19:51.622Z,6.90
2024-02-20T03:22:19.936Z,6.90
2024-02-20T03:24:46.897Z,6.90
2024-02-20T03:27:14.082Z,6.80
2024-02-20T03:29:42.785Z,6.90
2024-02-20T03:32:09.816Z,6.80
2024-02-20T03:34:37.044Z,6.70
2024-02-20T03:37:04.596Z,6.70
2024-02-20T03:39:31.517Z,6.70
2024-02-20T03:41:58.422Z,6.70
2024-02-20T03:44:25.370Z,6.70
2024-02-20T03:46:52.230Z,6.80
2024-02-20T03:49:19.341Z,6.80
2024-02-20T03:51:47.366Z,6.80
2024-02-20T03:54:14.301Z,6.80
2024-02-20T03:56:41.140Z,6.80
2024-02-20T03:59:08.314Z,6.80
2024-02-20T04:01:35.342Z,6.80
2024-02-20T04:04:02.495Z,6.80
2024-02-20T04:06:29.750Z,6.70
2024-02-20T04:08:56.666Z,6.70
2024-02-20T04:11:23.687Z,6.70
2024-02-20T04:13:50.587Z,6.70
2024-02-20T04:16:17.449Z,6.70
2024-02-20T04:18:44.379Z,6.70
2024-02-20T04:21:11.288Z,6.60
2024-02-20T04:23:38.136Z,6.70
2024-02-20T04:26:05.115Z,6.60
2024-02-20T04:28:36.517Z,6.50
2024-02-20T04:31:04.244Z,6.50
2024-02-20T04:33:31.579Z,6.40
2024-02-20T04:35:58.491Z,6.40
2024-02-20T04:38:25.371Z,6.40
2024-02-20T04:40:53.085Z,6.40
2024-02-20T04:43:20.159Z,6.50
2024-02-20T04:45:48.053Z,6.60
2024-02-20T04:48:15.475Z,6.60
2024-02-20T04:50:42.406Z,6.60
2024-02-20T04:53:10.254Z,6.60
2024-02-20T04:55:38.313Z,6.60
2024-02-20T04:58:07.019Z,6.60
2024-02-20T05:00:34.641Z,6.50
2024-02-20T05:03:01.558Z,6.50
2024-02-20T05:05:28.517Z,6.50
2024-02-20T05:07:55.375Z,6.50
2024-02-20T05:10:22.830Z,6.50
2024-02-20T05:12:49.704Z,6.50
2024-02-20T05:15:16.697Z,6.60
2024-02-20T05:17:43.623Z,6.60
2024-02-20T05:20:10.925Z,6.60
2024-02-20T05:22:38.103Z,6.60
2024-02-20T05:25:07.648Z,6.50
2024-02-20T05:27:34.689Z,6.50
2024-02-20T05:30:01.586Z,6.50
2024-02-20T05:32:28.584Z,6.40
2024-02-20T05:34:55.980Z,6.40
2024-02-20T05:37:22.919Z,6.30
2024-02-20T05:39:49.844Z,6.30
2024-02-20T05:42:16.836Z,6.30
2024-02-20T05:44:43.599Z,6.30
2024-02-20T05:47:11.511Z,6.30
2024-02-20T05:49:38.615Z,6.20
2024-02-20T05:52:06.009Z,6.20
2024-02-20T05:54:34.437Z,6.20
2024-02-20T05:57:01.276Z,6.10
2024-02-20T05:59:30.071Z,6.20
2024-02-20T06:01:56.998Z,6.20
2024-02-20T06:04:24.017Z,6.20
2024-02-20T06:06:51.164Z,6.20
2024-02-20T06:09:18.085Z,6.20
2024-02-20T06:11:45.045Z,6.30
2024-02-20T06:14:12.014Z,6.30
2024-02-20T06:16:39.898Z,6.40
2024-02-20T06:19:07.031Z,6.40
2024-02-20T06:21:34.158Z,6.50
2024-02-20T06:24:01.072Z,6.50
2024-02-20T06:26:29.273Z,6.50
2024-02-20T06:28:56.277Z,6.60
2024-02-20T06:31:23.374Z,6.60
2024-02-20T06:33:50.529Z,6.60
2024-02-20T06:36:17.448Z,6.50
2024-02-20T06:38:44.442Z,6.50
2024-02-20T06:41:11.581Z,6.60
2024-02-20T06:43:38.696Z,6.60
2024-02-20T06:46:05.935Z,6.60
2024-02-20T06:48:32.991Z,6.70
2024-02-20T06:51:00.386Z,6.70
2024-02-20T06:53:27.308Z,6.70
2024-02-20T06:55:54.394Z,6.60
2024-02-20T06:58:21.552Z,6.60
2024-02-20T07:00:48.586Z,6.60
2024-02-20T07:03:15.614Z,6.70
2024-02-20T07:05:43.013Z,6.70
2024-02-20T07:08:11.051Z,6.70
2024-02-20T07:10:38.098Z,6.70
2024-02-20T07:13:05.349Z,6.80
2024-02-20T07:15:32.640Z,6.80
2024-02-20T07:17:59.705Z,6.90
2024-02-20T07:20:26.766Z,6.80
2024-02-20T07:22:54.337Z,6.90
2024-02-20T07:25:22.798Z,6.90
2024-02-20T07:27:50.494Z,7.00
2024-02-20T07:30:18.113Z,7.00
2024-02-20T07:32:45.466Z,7.10
2024-02-20T07:35:13.544Z,7.10
2024-02-20T07:37:41.539Z,7.10
2024-02-20T07:40:12.979Z,7.10
2024-02-20T07:42:41.048Z,7.20
2024-02-20T07:45:08.966Z,7.10
2024-02-20T07:47:36.900Z,7.20
2024-02-20T07:50:05.709Z,7.20
2024-02-20T07:52:33.447Z,7.20
2024-02-20T07:55:02.084Z,7.20
2024-02-20T07:57:31.832Z,7.20
2024-02-20T07:59:58.771Z,7.20
2024-02-20T08:02:25.803Z,7.20
2024-02-20T08:04:52.970Z,7.10
2024-02-20T08:07:19.961Z,7.10
2024-02-20T08:09:47.008Z,7.10
2024-02-20T08:12:13.924Z,7.20
2024-02-20T08:14:40.851Z,7.20
2024-02-20T08:17:07.992Z,7.30
2024-02-20T08:19:35.190Z,7.30
2024-02-20T08:22:02.252Z,7.30
2024-02-20T08:24:29.268Z,7.30
2024-02-20T08:26:58.495Z,7.30
2024-02-20T08:29:28.554Z,7.20
2024-02-20T08:31:58.612Z,7.30
2024-02-20T08:34:25.876Z,7.30
2024-02-20T08:36:52.975Z,7.30
2024-02-20T08:39:20.387Z,7.30
2024-02-20T08:41:47.346Z,7.40
2024-02-20T08:44:14.295Z,7.60
2024-02-20T08:46:41.343Z,7.80
2024-02-20T08:49:08.433Z,7.80
2024-02-20T08:51:35.593Z,7.80
2024-02-20T08:54:02.564Z,7.70
2024-02-20T08:56:29.589Z,7.70
2024-02-20T08:58:56.527Z,7.70
2024-02-20T09:01:26.639Z,7.80
2024-02-20T09:03:57.054Z,7.80
2024-02-20T09:06:24.225Z,7.90
2024-02-20T09:08:51.156Z,8.00
2024-02-20T09:11:18.270Z,8.20
2024-02-20T09:13:45.360Z,8.40
2024-02-20T09:16:12.588Z,8.60
2024-02-20T09:18:39.623Z,8.60
2024-02-20T09:21:08.478Z,8.60
2024-02-20T09:23:38.941Z,8.40
2024-02-20T09:26:07.293Z,8.40
2024-02-20T09:28:34.917Z,8.50
2024-02-20T09:31:02.607Z,8.80
2024-02-20T09:33:34.052Z,8.80
2024-02-20T09:36:01.509Z,8.80
2024-02-20T09:38:28.618Z,8.80
2024-02-20T09:40:56.162Z,8.60
2024-02-20T09:43:23.395Z,8.60
2024-02-20T09:45:51.949Z,8.50
2024-02-20T09:48:20.195Z,8.20
2024-02-20T09:50:52.057Z,8.30
2024-02-20T09:53:20.921Z,8.60
2024-02-20T09:55:53.218Z,8.70
2024-02-20T09:58:20.339Z,8.60
2024-02-20T10:00:47.489Z,8.50
2024-02-20T10:03:15.382Z,8.50
2024-02-20T10:05:46.933Z,8.50
2024-02-20T10:08:14.280Z,8.50
2024-02-20T10:10:45.557Z,8.50
2024-02-20T10:13:13.577Z,8.50
2024-02-20T10:15:40.819Z,8.70
2024-02-20T10:18:08.593Z,8.90
2024-02-20T10:20:36.038Z,9.00
2024-02-20T10:23:10.832Z,9.10
2024-02-20T10:25:38.514Z,9.20
2024-02-20T10:28:06.952Z,9.20
2024-02-20T10:30:34.817Z,9.30
2024-02-20T10:33:02.008Z,9.10
2024-02-20T10:35:29.289Z,9.10
2024-02-20T10:38:04.012Z,9.20
2024-02-20T10:40:32.848Z,9.10
2024-02-20T10:43:01.892Z,9.00
2024-02-20T10:45:29.681Z,9.20
2024-02-20T10:47:59.026Z,9.20
2024-02-20T10:50:27.745Z,9.40
2024-02-20T10:52:55.927Z,9.60
2024-02-20T10:55:32.100Z,9.70
2024-02-20T10:58:04.894Z,9.70
2024-02-20T11:00:35.421Z,9.60
2024-02-20T11:03:06.047Z,9.60
2024-02-20T11:05:33.588Z,9.50
2024-02-20T11:08:07.381Z,9.50
2024-02-20T11:10:37.038Z,9.60
2024-02-20T11:13:27.099Z,9.70
2024-02-20T11:15:55.697Z,9.80
2024-02-20T11:18:24.622Z,9.80
2024-02-20T11:21:04.632Z,9.90
2024-02-20T11:23:33.032Z,10.10
2024-02-20T11:26:11.356Z,9.90
2024-02-20T11:28:39.665Z,9.90
2024-02-20T11:31:08.188Z,9.90
2024-02-20T11:33:36.502Z,9.90
2024-02-20T11:36:07.580Z,10.10
2024-02-20T11:38:36.215Z,9.90
2024-02-20T11:41:07.506Z,9.80
2024-02-20T11:43:34.760Z,10.00
2024-02-20T11:46:02.789Z,10.00
2024-02-20T11:48:32.553Z,9.80
2024-02-20T11:51:00.618Z,9.80
2024-02-20T11:53:28.097Z,9.70
2024-02-20T11:55:56.495Z,9.80
2024-02-20T11:58:27.863Z,9.70
2024-02-20T12:01:05.164Z,9.60
2024-02-20T12:03:38.556Z,9.40
2024-02-20T12:06:10.292Z,9.50
2024-02-20T12:08:46.437Z,9.50
2024-02-20T12:11:23.418Z,9.50
2024-02-20T12:13:54.067Z,9.60
2024-02-20T12:16:28.594Z,9.80
2024-02-20T12:19:03.466Z,9.90
2024-02-20T12:21:39.878Z,9.70
2024-02-20T12:24:11.563Z,9.70
2024-02-20T12:26:38.859Z,9.60
2024-02-20T12:29:05.830Z,9.40
2024-02-20T12:31:33.975Z,9.50
2024-02-20T12:34:03.880Z,9.50
2024-02-20T12:36:32.678Z,9.50
2024-02-20T12:39:01.041Z,9.70
2024-02-20T12:41:28.553Z,9.80
2024-02-20T12:43:55.607Z,9.70
2024-02-20T12:46:22.938Z,9.60
2024-02-20T12:48:54.987Z,9.50
2024-02-20T12:51:23.150Z,9.60
2024-02-20T12:53:50.347Z,9.60
2024-02-20T12:56:17.290Z,9.60
2024-02-20T12:58:47.081Z,9.50
2024-02-20T13:01:16.157Z,9.50
2024-02-20T13:03:43.669Z,9.50
2024-02-20T13:06:10.821Z,9.50
2024-02-20T13:08:37.789Z,9.60
2024-02-20T13:11:08.061Z,9.70
2024-02-20T13:13:35.502Z,9.70
2024-02-20T13:16:02.798Z,9.60
2024-02-20T13:18:30.056Z,9.70
2024-02-20T13:20:57.229Z,9.70
2024-02-20T13:23:24.116Z,9.80
2024-02-20T13:25:51.196Z,9.80
2024-02-20T13:28:22.672Z,9.70
2024-02-20T13:30:49.795Z,9.80
2024-02-20T13:33:17.868Z,9.80
2024-02-20T13:35:45.039Z,9.80
2024-02-20T13:38:14.249Z,9.80
2024-02-20T13:40:44.391Z,9.80
2024-02-20T13:43:11.502Z,10.00
2024-02-20T13:45:52.543Z,9.90
2024-02-20T13:48:20.116Z,9.80
2024-02-20T13:50:48.464Z,9.80
2024-02-20T13:53:16.766Z,9.60
2024-02-20T13:55:51.353Z,9.60
2024-02-20T13:58:19.013Z,9.70
2024-02-20T14:00:46.631Z,9.80
2024-02-20T14:03:17.469Z,9.70
2024-02-20T14:05:45.040Z,9.70
2024-02-20T14:08:13.052Z,9.60
2024-02-20T14:10:41.104Z,9.70
2024-02-20T14:13:09.769Z,9.60
2024-02-20T14:15:36.925Z,9.60
2024-02-20T14:18:04.221Z,9.50
2024-02-20T14:20:32.048Z,9.50
2024-02-20T14:23:00.604Z,9.50
2024-02-20T14:25:27.756Z,9.60
2024-02-20T14:27:54.810Z,9.60
2024-02-20T14:30:21.780Z,9.50
2024-02-20T14:32:49.013Z,9.50
2024-02-20T14:35:16.275Z,9.40
2024-02-20T14:37:43.521Z,9.30
2024-02-20T14:40:11.233Z,9.40
2024-02-20T14:42:38.376Z,9.30
2024-02-20T14:45:07.141Z,9.30
2024-02-20T14:47:34.284Z,9.30
2024-02-20T14:50:01.252Z,9.30
2024-02-20T14:52:28.122Z,9.30
2024-02-20T14:54:55.229Z,9.30
2024-02-20T14:57:23.891Z,9.30
2024-02-20T14:59:50.976Z,9.30
2024-02-20T15:02:18.052Z,9.20
2024-02-20T15:04:45.221Z,9.30
2024-02-20T15:07:15.279Z,9.20
2024-02-20T15:09:43.121Z,9.30
2024-02-20T15:12:22.160Z,9.20
2024-02-20T15:14:50.403Z,9.20
2024-02-20T15:17:17.975Z,9.20
2024-02-20T15:19:49.861Z,9.20
2024-02-20T15:22:17.030Z,9.20
2024-02-20T15:24:43.964Z,9.20
2024-02-20T15:27:12.561Z,9.20
2024-02-20T15:29:40.277Z,9.20
2024-02-20T15:32:08.444Z,9.20
2024-02-20T15:34:35.699Z,9.20
2024-02-20T15:37:02.748Z,9.20
2024-02-20T15:39:30.731Z,9.10
2024-02-20T15:41:57.680Z,9.10
2024-02-20T15:44:24.664Z,9.10
2024-02-20T15:46:52.009Z,9.10
2024-02-20T15:49:22.268Z,9.10
2024-02-20T15:51:49.336Z,9.10
2024-02-20T15:54:16.285Z,9.10
2024-02-20T15:56:45.414Z,9.00
2024-02-20T15:59:13.139Z,9.00
2024-02-20T16:01:41.298Z,9.00
2024-02-20T16:04:08.522Z,9.00
2024-02-20T16:06:36.026Z,9.00
2024-02-20T16:09:04.435Z,9.00
2024-02-20T16:11:31.366Z,9.00
2024-02-20T16:13:58.461Z,9.00
2024-02-20T16:16:25.432Z,9.00
2024-02-20T16:18:52.398Z,9.00
2024-02-20T16:21:19.397Z,8.90
2024-02-20T16:23:48.626Z,8.90
2024-02-20T16:26:20.198Z,8.90
2024-02-20T16:28:47.260Z,8.90
2024-02-20T16:31:14.133Z,8.90
2024-02-20T16:33:41.197Z,8.90
2024-02-20T16:36:08.242Z,8.90
2024-02-20T16:38:36.326Z,8.80
2024-02-20T16:41:03.821Z,8.80
2024-02-20T16:43:37.159Z,8.90
2024-02-20T16:46:05.370Z,8.80
2024-02-20T16:48:35.273Z,8.80
2024-02-20T16:51:02.241Z,8.80
2024-02-20T16:53:29.177Z,8.80
2024-02-20T16:55:56.364Z,8.80
2024-02-20T16:58:23.378Z,8.70
2024-02-20T17:00:50.462Z,8.80
2024-02-20T17:03:17.445Z,8.80
2024-02-20T17:05:45.246Z,8.80
2024-02-20T17:08:12.238Z,8.70
2024-02-20T17:10:39.330Z,8.70
2024-02-20T17:13:06.342Z,8.70
2024-02-20T17:15:33.317Z,8.70
2024-02-20T17:18:00.397Z,8.70
2024-02-20T17:20:29.528Z,8.70
2024-02-20T17:22:56.583Z,8.70
2024-02-20T17:25:26.064Z,8.70
2024-02-20T17:27:53.025Z,8.70
2024-02-20T17:30:20.240Z,8.70
2024-02-20T17:32:47.492Z,8.70
2024-02-20T17:35:15.089Z,8.70
2024-02-20T17:37:42.371Z,8.60
2024-02-20T17:40:11.862Z,8.70
2024-02-20T17:42:39.057Z,8.70
2024-02-20T17:45:06.503Z,8.60
2024-02-20T17:47:33.752Z,8.60
2024-02-20T17:50:01.291Z,8.60
2024-02-20T17:52:28.314Z,8.60
2024-02-20T17:54:55.350Z,8.60
2024-02-20T17:57:22.294Z,8.60
2024-02-20T17:59:49.253Z,8.60
2024-02-20T18:02:16.372Z,8.70
2024-02-20T18:04:43.474Z,8.70
2024-02-20T18:07:10.819Z,8.70
2024-02-20T18:09:41.927Z,8.70
2024-02-20T18:12:10.325Z,8.60
2024-02-20T18:14:37.268Z,8.70
2024-02-20T18:17:04.362Z,8.60
2024-02-20T18:19:31.324Z,8.50
2024-02-20T18:22:01.194Z,8.50
2024-02-20T18:24:28.093Z,8.40
2024-02-20T18:26:55.723Z,8.50
2024-02-20T18:29:22.608Z,8.40
2024-02-20T18:31:49.604Z,8.40
2024-02-20T18:34:16.812Z,8.40
2024-02-20T18:36:43.778Z,8.30
2024-02-20T18:39:10.835Z,8.30
2024-02-20T18:41:37.832Z,8.30
2024-02-20T18:44:04.988Z,8.40
2024-02-20T18:46:31.909Z,8.30
2024-02-20T18:48:59.477Z,8.30
2024-02-20T18:51:26.437Z,8.40
2024-02-20T18:53:56.422Z,8.40
2024-02-20T18:56:24.367Z,8.40
2024-02-20T18:58:51.321Z,8.40
2024-02-20T19:01:20.289Z,8.40
2024-02-20T19:03:47.636Z,8.40
2024-02-20T19:06:14.601Z,8.40
2024-02-20T19:08:45.160Z,8.40
2024-02-20T19:11:13.267Z,8.40
2024-02-20T19:13:40.593Z,8.40
2024-02-20T19:16:07.821Z,8.30
2024-02-20T19:18:34.799Z,8.30
2024-02-20T19:21:01.757Z,8.30
2024-02-20T19:23:28.946Z,8.30
2024-02-20T19:25:55.878Z,8.30
2024-02-20T19:28:23.345Z,8.30
2024-02-20T19:30:50.331Z,8.40
2024-02-20T19:33:17.345Z,8.30
2024-02-20T19:35:44.391Z,8.30
2024-02-20T19:38:12.026Z,8.40
2024-02-20T19:40:40.727Z,8.40
2024-02-20T19:43:07.706Z,8.50
2024-02-20T19:45:34.710Z,8.60
2024-02-20T19:48:01.732Z,8.60
2024-02-20T19:50:28.789Z,8.60
2024-02-20T19:52:55.960Z,8.60
2024-02-20T19:55:22.979Z,8.60
2024-02-20T19:57:50.885Z,8.60
2024-02-20T20:00:18.477Z,8.60
2024-02-20T20:02:45.310Z,8.60
2024-02-20T20:05:12.316Z,8.60
2024-02-20T20:07:39.467Z,8.70
2024-02-20T20:10:06.941Z,8.70
2024-02-20T20:12:34.309Z,8.70
2024-02-20T20:15:01.135Z,8.70
2024-02-20T20:17:28.105Z,8.80
2024-02-20T20:19:55.108Z,8.70
2024-02-20T20:22:22.013Z,8.70
2024-02-20T20:24:48.956Z,8.70
2024-02-20T20:27:16.362Z,8.60
2024-02-20T20:29:43.838Z,8.60
2024-02-20T20:32:10.820Z,8.60
2024-02-20T20:34:38.765Z,8.60
2024-02-20T20:37:05.824Z,8.60
2024-02-20T20:39:32.819Z,8.80
2024-02-20T20:41:59.760Z,8.80
2024-02-20T20:44:26.848Z,8.90
2024-02-20T20:46:54.811Z,8.80
2024-02-20T20:49:22.002Z,8.80
2024-02-20T20:51:48.990Z,8.80
2024-02-20T20:54:16.123Z,8.80
2024-02-20T20:56:42.951Z,8.80
2024-02-20T20:59:09.865Z,8.80
2024-02-20T21:01:37.174Z,8.80
2024-02-20T21:04:04.939Z,8.80
2024-02-20T21:06:32.216Z,8.80
2024-02-20T21:09:00.394Z,8.70
2024-02-20T21:11:27.406Z,8.70
2024-02-20T21:13:54.475Z,8.70
2024-02-20T21:16:23.673Z,8.60
2024-02-20T21:18:50.941Z,8.60
2024-02-20T21:21:19.701Z,8.60
2024-02-20T21:23:49.534Z,8.70
2024-02-20T21:26:16.583Z,8.70
2024-02-20T21:28:43.561Z,8.70
2024-02-20T21:31:11.118Z,8.70
2024-02-20T21:33:38.259Z,8.70
2024-02-20T21:36:06.153Z,8.80
2024-02-20T21:38:33.986Z,8.70
2024-02-20T21:41:02.169Z,8.80
2024-02-20T21:43:29.317Z,8.80
2024-02-20T21:45:56.327Z,8.70
2024-02-20T21:48:23.567Z,8.70
2024-02-20T21:50:50.624Z,8.70
2024-02-20T21:53:17.622Z,8.70
2024-02-20T21:55:44.608Z,8.70
2024-02-20T21:58:11.682Z,8.70
2024-02-20T22:00:38.791Z,8.70
2024-02-20T22:03:07.139Z,8.70
2024-02-20T22:05:34.259Z,8.70
2024-02-20T22:08:02.122Z,8.70
2024-02-20T22:10:29.431Z,8.70
2024-02-20T22:12:57.449Z,8.70
2024-02-20T22:15:24.476Z,8.70
2024-02-20T22:17:51.480Z,8.60
2024-02-20T22:20:18.493Z,8.70
2024-02-20T22:22:45.564Z,8.60
2024-02-20T22:25:12.661Z,8.60
2024-02-20T22:27:39.683Z,8.60
2024-02-20T22:30:07.202Z,8.60
2024-02-20T22:32:34.230Z,8.60
2024-02-20T22:35:01.613Z,8.60
2024-02-20T22:37:28.681Z,8.50
2024-02-20T22:39:55.573Z,8.60
2024-02-20T22:42:23.473Z,8.50
2024-02-20T22:44:50.591Z,8.50
2024-02-20T22:47:17.520Z,8.50
2024-02-20T22:49:46.592Z,8.50
2024-02-20T22:52:13.942Z,8.50
2024-02-20T22:54:41.136Z,8.50
2024-02-20T22:57:08.279Z,8.40
2024-02-20T22:59:35.971Z,8.50
2024-02-20T23:02:03.498Z,8.40
2024-02-20T23:04:30.591Z,8.40
2024-02-20T23:06:57.736Z,8.40
2024-02-20T23:09:24.576Z,8.30
2024-02-20T23:11:51.494Z,8.30
2024-02-20T23:14:18.371Z,8.30
2024-02-20T23:16:47.216Z,8.30
2024-02-20T23:19:14.337Z,8.30
2024-02-20T23:21:41.352Z,8.30
2024-02-20T23:24:08.323Z,8.30
2024-02-20T23:26:35.624Z,8.30
2024-02-20T23:29:02.628Z,8.30
2024-02-20T23:31:29.666Z,8.30
2024-02-20T23:33:56.779Z,8.30
2024-02-20T23:36:23.700Z,8.30
2024-02-20T23:38:50.558Z,8.30
2024-02-20T23:41:17.639Z,8.30
2024-02-20T23:43:44.516Z,8.30
2024-02-20T23:46:14.603Z,8.30
2024-02-20T23:48:41.740Z,8.30
2024-02-20T23:51:08.722Z,8.20
2024-02-20T23:53:35.655Z,8.20
2024-02-20T23:56:03.658Z,8.20
2024-02-20T23:58:30.873Z,8.30
